createdAt,value
2018-08-12T00:01:38.821Z,94.30
2018-08-12T00:04:06.894Z,94.60
2018-08-12T00:06:34.885Z,94.60
2018-08-12T00:09:02.912Z,94.70
2018-08-12T00:11:30.977Z,94.70
2018-08-12T00:13:59.025Z,94.90
2018-08-12T00:16:27.098Z,94.90
2018-08-12T00:18:55.153Z,95.10
2018-08-12T00:21:23.189Z,94.90
2018-08-12T00:23:51.201Z,95.00
2018-08-12T00:26:19.241Z,95.10
2018-08-12T00:28:47.285Z,95.30
2018-08-12T00:31:15.322Z,95.50
2018-08-12T00:33:43.434Z,95.70
2018-08-12T00:36:11.477Z,96.00
2018-08-12T00:38:39.490Z,96.40
2018-08-12T00:41:07.529Z,96.60
2018-08-12T00:43:35.689Z,96.80
2018-08-12T00:46:03.753Z,96.90
2018-08-12T00:48:32.057Z,97.20
2018-08-12T00:51:00.113Z,97.20
2018-08-12T00:53:28.125Z,97.50
2018-08-12T00:55:56.294Z,97.30
2018-08-12T00:58:24.329Z,97.40
2018-08-12T01:00:52.377Z,97.70
2018-08-12T01:03:20.413Z,97.70
2018-08-12T01:05:48.536Z,98.00
2018-08-12T01:08:16.533Z,98.30
2018-08-12T01:10:44.557Z,98.50
2018-08-12T01:13:12.886Z,98.40
2018-08-12T01:15:40.960Z,98.60
2018-08-12T01:18:08.969Z,98.50
2018-08-12T01:20:37.021Z,98.70
2018-08-12T01:23:05.027Z,98.70
2018-08-12T01:25:33.065Z,98.80
2018-08-12T01:28:01.057Z,99.00
2018-08-12T01:30:29.106Z,99.20
2018-08-12T01:32:57.208Z,99.30
2018-08-12T01:35:25.248Z,99.50
2018-08-12T01:37:53.294Z,99.70
2018-08-12T01:40:21.397Z,99.90
2018-08-12T01:42:49.397Z,99.90
2018-08-12T01:45:18.924Z,99.90
2018-08-12T01:47:46.917Z,99.90
2018-08-12T01:50:16.424Z,99.90
2018-08-12T01:52:44.425Z,99.90
2018-08-12T01:55:12.466Z,99.90
2018-08-12T01:57:40.540Z,99.90
2018-08-12T02:00:12.774Z,99.90
2018-08-12T02:02:40.805Z,99.90
2018-08-12T02:05:08.852Z,99.90
2018-08-12T02:07:36.937Z,99.90
2018-08-12T02:10:06.192Z,99.90
2018-08-12T02:12:34.214Z,99.90
2018-08-12T02:15:02.257Z,99.90
2018-08-12T02:17:30.553Z,99.90
2018-08-12T02:19:58.564Z,99.90
2018-08-12T02:22:26.569Z,99.90
2018-08-12T02:24:54.610Z,99.90
2018-08-12T02:27:22.679Z,99.90
2018-08-12T02:29:50.765Z,99.90
2018-08-12T02:32:18.769Z,99.90
2018-08-12T02:34:46.765Z,99.90
2018-08-12T02:37:14.797Z,99.90
2018-08-12T02:39:42.889Z,99.90
2018-08-12T02:42:11.290Z,99.90
2018-08-12T02:44:39.294Z,99.90
2018-08-12T02:47:07.359Z,99.90
2018-08-12T02:49:36.585Z,99.90
2018-08-12T02:52:04.590Z,99.90
2018-08-12T02:54:32.622Z,99.90
2018-08-12T02:57:00.670Z,99.90
2018-08-12T02:59:28.673Z,99.90
2018-08-12T03:01:56.677Z,99.90
2018-08-12T03:04:24.721Z,99.90
2018-08-12T03:06:52.762Z,99.90
2018-08-12T03:09:20.759Z,99.90
2018-08-12T03:11:48.805Z,99.90
2018-08-12T03:14:16.893Z,99.90
2018-08-12T03:16:45.177Z,99.90
2018-08-12T03:19:13.189Z,99.90
2018-08-12T03:21:41.197Z,99.90
2018-08-12T03:24:09.329Z,99.90
2018-08-12T03:26:37.432Z,99.90
2018-08-12T03:29:05.565Z,99.90
2018-08-12T03:31:33.585Z,99.90
2018-08-12T03:34:01.621Z,99.90
2018-08-12T03:36:29.636Z,99.90
2018-08-12T03:38:58.037Z,99.90
2018-08-12T03:41:26.121Z,99.90
2018-08-12T03:43:54.141Z,99.90
2018-08-12T03:46:22.177Z,99.90
2018-08-12T03:48:50.276Z,99.90
2018-08-12T03:51:18.379Z,99.90
2018-08-12T03:53:46.373Z,99.90
2018-08-12T03:56:14.420Z,99.90
2018-08-12T03:58:42.468Z,99.90
2018-08-12T04:01:10.697Z,99.90
2018-08-12T04:03:38.748Z,99.90
2018-08-12T04:06:06.756Z,99.90
2018-08-12T04:08:34.877Z,99.90
2018-08-12T04:11:02.930Z,99.90
2018-08-12T04:13:31.321Z,99.90
2018-08-12T04:15:59.410Z,99.90
2018-08-12T04:18:27.414Z,99.90
2018-08-12T04:20:55.451Z,99.90
2018-08-12T04:23:23.457Z,99.90
2018-08-12T04:25:51.501Z,99.90
2018-08-12T04:28:19.626Z,99.90
2018-08-12T04:30:47.660Z,99.90
2018-08-12T04:33:15.702Z,99.90
2018-08-12T04:35:44.173Z,99.90
2018-08-12T04:38:12.265Z,99.90
2018-08-12T04:40:40.289Z,99.90
2018-08-12T04:43:08.872Z,99.90
2018-08-12T04:45:37.024Z,99.90
2018-08-12T04:48:05.076Z,99.90
2018-08-12T04:50:33.081Z,99.90
2018-08-12T04:53:01.134Z,99.90
2018-08-12T04:55:29.130Z,99.90
2018-08-12T04:57:57.141Z,99.90
2018-08-12T05:00:25.190Z,99.90
2018-08-12T05:02:53.226Z,99.90
2018-08-12T05:05:21.229Z,99.90
2018-08-12T05:07:49.286Z,99.90
2018-08-12T05:10:17.361Z,99.90
2018-08-12T05:12:45.450Z,99.50
2018-08-12T05:15:13.493Z,99.50
2018-08-12T05:17:41.612Z,99.10
2018-08-12T05:20:10.257Z,98.90
2018-08-12T05:22:38.704Z,98.70
2018-08-12T05:25:07.029Z,98.60
2018-08-12T05:27:35.085Z,98.60
2018-08-12T05:30:03.206Z,98.60
2018-08-12T05:32:31.209Z,98.40
2018-08-12T05:34:59.208Z,98.20
2018-08-12T05:37:27.254Z,97.40
2018-08-12T05:39:55.289Z,97.10
2018-08-12T05:42:23.344Z,96.60
2018-08-12T05:44:51.661Z,96.30
2018-08-12T05:47:19.660Z,95.70
2018-08-12T05:49:47.661Z,95.10
2018-08-12T05:52:15.718Z,94.90
2018-08-12T05:54:43.736Z,94.60
2018-08-12T05:57:11.773Z,94.20
2018-08-12T05:59:39.807Z,94.40
2018-08-12T06:02:07.870Z,93.70
2018-08-12T06:04:36.042Z,93.90
2018-08-12T06:07:04.405Z,93.00
2018-08-12T06:09:32.436Z,93.00
2018-08-12T06:12:00.453Z,92.60
2018-08-12T06:14:28.493Z,92.40
2018-08-12T06:16:56.538Z,92.20
2018-08-12T06:19:24.657Z,91.70
2018-08-12T06:21:52.728Z,91.70
2018-08-12T06:24:20.745Z,91.40
2018-08-12T06:26:48.757Z,92.00
2018-08-12T06:29:17.081Z,91.40
2018-08-12T06:31:45.093Z,91.20
2018-08-12T06:34:13.202Z,91.50
2018-08-12T06:36:41.343Z,91.60
2018-08-12T06:39:10.757Z,90.00
2018-08-12T06:41:38.931Z,90.60
2018-08-12T06:44:07.130Z,90.00
2018-08-12T06:46:35.825Z,90.20
2018-08-12T06:49:03.863Z,90.50
2018-08-12T06:51:31.889Z,89.80
2018-08-12T06:53:59.967Z,89.50
2018-08-12T06:56:27.969Z,89.70
2018-08-12T06:58:56.013Z,89.00
2018-08-12T07:01:24.126Z,87.80
2018-08-12T07:03:52.314Z,87.50
2018-08-12T07:06:20.385Z,86.30
2018-08-12T07:08:48.406Z,86.00
2018-08-12T07:11:16.433Z,87.00
2018-08-12T07:13:44.769Z,85.00
2018-08-12T07:16:12.778Z,83.80
2018-08-12T07:18:40.777Z,83.90
2018-08-12T07:21:08.829Z,84.50
2018-08-12T07:23:36.845Z,84.40
2018-08-12T07:26:04.842Z,83.50
2018-08-12T07:28:32.889Z,82.20
2018-08-12T07:31:00.889Z,82.90
2018-08-12T07:33:28.925Z,83.30
2018-08-12T07:35:56.973Z,83.10
2018-08-12T07:38:24.983Z,81.90
2018-08-12T07:40:53.013Z,81.30
2018-08-12T07:43:21.004Z,81.70
2018-08-12T07:45:49.114Z,81.30
2018-08-12T07:48:17.245Z,80.50
2018-08-12T07:50:45.533Z,79.60
2018-08-12T07:53:13.621Z,79.40
2018-08-12T07:55:41.865Z,78.00
2018-08-12T07:58:09.757Z,77.60
2018-08-12T08:00:38.130Z,77.50
2018-08-12T08:03:06.341Z,77.50
2018-08-12T08:05:34.352Z,76.40
2018-08-12T08:08:02.401Z,76.00
2018-08-12T08:10:30.453Z,77.60
2018-08-12T08:12:58.625Z,75.80
2018-08-12T08:15:26.689Z,74.00
2018-08-12T08:17:54.697Z,76.50
2018-08-12T08:20:22.748Z,74.60
2018-08-12T08:22:50.947Z,73.90
2018-08-12T08:25:19.053Z,74.90
2018-08-12T08:27:47.032Z,74.10
2018-08-12T08:30:15.591Z,73.20
2018-08-12T08:32:43.653Z,72.50
2018-08-12T08:35:12.398Z,73.80
2018-08-12T08:37:40.809Z,71.30
2018-08-12T08:40:10.800Z,71.00
2018-08-12T08:42:38.897Z,70.40
2018-08-12T08:45:12.119Z,68.00
2018-08-12T08:47:40.489Z,69.10
2018-08-12T08:50:08.770Z,70.00
2018-08-12T08:52:37.258Z,71.20
2018-08-12T08:55:06.122Z,69.50
2018-08-12T08:57:34.238Z,69.40
2018-08-12T09:00:02.376Z,69.10
2018-08-12T09:02:30.616Z,69.30
2018-08-12T09:04:58.734Z,68.70
2018-08-12T09:07:33.312Z,68.90
2018-08-12T09:10:01.458Z,66.20
2018-08-12T09:12:29.488Z,67.30
2018-08-12T09:14:57.505Z,69.20
2018-08-12T09:17:25.681Z,69.20
2018-08-12T09:19:53.789Z,69.10
2018-08-12T09:22:21.826Z,67.30
2018-08-12T09:24:50.049Z,66.10
2018-08-12T09:27:18.125Z,65.60
2018-08-12T09:29:46.133Z,65.80
2018-08-12T09:32:14.181Z,63.10
2018-08-12T09:34:42.277Z,61.70
2018-08-12T09:37:10.418Z,61.70
2018-08-12T09:39:38.545Z,63.30
2018-08-12T09:42:06.950Z,62.60
2018-08-12T09:44:34.949Z,63.20
2018-08-12T09:47:03.065Z,62.80
2018-08-12T09:49:31.209Z,60.00
2018-08-12T09:51:59.334Z,60.20
2018-08-12T09:54:27.365Z,60.90
2018-08-12T09:56:55.372Z,59.00
2018-08-12T09:59:23.368Z,58.50
2018-08-12T10:01:51.714Z,58.90
2018-08-12T10:04:19.797Z,58.90
2018-08-12T10:06:47.795Z,58.30
2018-08-12T10:09:15.884Z,58.60
2018-08-12T10:11:43.997Z,59.40
2018-08-12T10:14:12.076Z,57.00
2018-08-12T10:16:40.115Z,57.10
2018-08-12T10:21:43.674Z,57.20
2018-08-12T10:24:11.862Z,56.80
2018-08-12T10:26:40.293Z,56.50
2018-08-12T10:29:08.649Z,55.10
2018-08-12T10:31:36.907Z,57.20
2018-08-12T10:34:04.969Z,54.90
2018-08-12T10:36:33.086Z,54.20
2018-08-12T10:39:01.174Z,55.50
2018-08-12T10:41:29.208Z,56.40
2018-08-12T10:43:57.417Z,58.20
2018-08-12T10:46:25.417Z,57.20
2018-08-12T10:48:53.590Z,55.70
2018-08-12T10:51:21.633Z,55.30
2018-08-12T10:53:49.634Z,55.80
2018-08-12T10:56:17.674Z,54.30
2018-08-12T10:58:45.677Z,53.20
2018-08-12T11:01:13.674Z,50.80
2018-08-12T11:03:41.712Z,53.40
2018-08-12T11:06:09.726Z,54.90
2018-08-12T11:08:37.733Z,55.00
2018-08-12T11:11:05.841Z,54.90
2018-08-12T11:13:33.901Z,54.50
2018-08-12T11:16:01.998Z,53.40
2018-08-12T11:18:30.322Z,54.40
2018-08-12T11:20:58.394Z,54.30
2018-08-12T11:23:26.481Z,53.50
2018-08-12T11:25:54.508Z,52.50
2018-08-12T11:28:23.018Z,52.60
2018-08-12T11:30:51.444Z,53.50
2018-08-12T11:33:19.465Z,51.70
2018-08-12T11:35:47.514Z,51.80
2018-08-12T11:38:15.557Z,50.60
2018-08-12T11:40:43.563Z,50.50
2018-08-12T11:43:11.681Z,48.90
2018-08-12T11:45:39.755Z,49.30
2018-08-12T11:48:07.756Z,50.10
2018-08-12T11:50:35.797Z,49.60
2018-08-12T11:53:04.039Z,47.70
2018-08-12T11:55:32.104Z,46.90
2018-08-12T11:58:00.108Z,46.70
2018-08-12T12:00:28.201Z,46.80
2018-08-12T12:02:56.208Z,47.90
2018-08-12T12:05:24.524Z,47.10
2018-08-12T12:07:52.541Z,46.10
2018-08-12T12:10:22.245Z,47.80
2018-08-12T12:12:51.265Z,47.40
2018-08-12T12:15:19.481Z,46.60
2018-08-12T12:17:47.990Z,46.30
2018-08-12T12:20:16.914Z,46.30
2018-08-12T12:22:45.756Z,47.20
2018-08-12T12:25:15.137Z,48.30
2018-08-12T12:27:43.232Z,46.60
2018-08-12T12:30:13.549Z,46.10
2018-08-12T12:32:41.847Z,45.70
2018-08-12T12:35:09.865Z,44.30
2018-08-12T12:37:38.271Z,45.60
2018-08-12T12:40:07.917Z,44.90
2018-08-12T12:42:36.333Z,46.10
2018-08-12T12:45:05.972Z,46.20
2018-08-12T12:47:34.862Z,47.00
2018-08-12T12:50:03.017Z,44.20
2018-08-12T12:52:31.019Z,45.40
2018-08-12T12:54:59.057Z,46.80
2018-08-12T12:57:27.057Z,43.20
2018-08-12T12:59:55.097Z,44.40
2018-08-12T13:02:23.137Z,43.70
2018-08-12T13:04:51.181Z,44.80
2018-08-12T13:09:53.769Z,44.90
2018-08-12T13:12:21.917Z,42.80
2018-08-12T13:14:49.937Z,44.90
2018-08-12T13:17:17.981Z,43.30
2018-08-12T13:19:46.092Z,43.10
2018-08-12T13:22:14.141Z,42.80
2018-08-12T13:24:42.136Z,42.90
2018-08-12T13:27:10.186Z,41.90
2018-08-12T13:29:38.391Z,43.00
2018-08-12T13:32:06.725Z,41.80
2018-08-12T13:34:34.746Z,41.10
2018-08-12T13:37:02.762Z,42.90
2018-08-12T13:39:30.901Z,41.90
2018-08-12T13:41:58.938Z,42.50
2018-08-12T13:44:27.050Z,43.00
2018-08-12T13:46:55.098Z,42.60
2018-08-12T13:49:24.160Z,41.70
2018-08-12T13:51:52.165Z,40.80
2018-08-12T13:54:20.362Z,40.80
2018-08-12T13:56:48.413Z,39.70
2018-08-12T13:59:16.441Z,41.60
2018-08-12T14:01:44.606Z,39.60
2018-08-12T14:04:12.649Z,39.90
2018-08-12T14:06:40.782Z,38.30
2018-08-12T14:09:09.788Z,38.10
2018-08-12T14:11:37.824Z,38.40
2018-08-12T14:14:06.623Z,38.80
2018-08-12T14:16:34.677Z,39.20
2018-08-12T14:19:03.541Z,39.50
2018-08-12T14:21:31.955Z,40.00
2018-08-12T14:24:00.750Z,38.20
2018-08-12T14:26:28.936Z,39.10
2018-08-12T14:28:57.097Z,38.40
2018-08-12T14:31:25.480Z,39.20
2018-08-12T14:33:53.664Z,39.60
2018-08-12T14:36:21.666Z,39.20
2018-08-12T14:38:49.711Z,39.00
2018-08-12T14:41:17.717Z,38.90
2018-08-12T14:43:45.774Z,38.50
2018-08-12T14:46:13.865Z,38.90
2018-08-12T14:48:42.205Z,38.80
2018-08-12T14:51:10.346Z,38.20
2018-08-12T14:53:38.729Z,38.40
2018-08-12T14:56:07.015Z,36.90
2018-08-12T14:58:35.021Z,38.30
2018-08-12T15:01:03.118Z,38.10
2018-08-12T15:03:31.113Z,37.30
2018-08-12T15:05:59.121Z,38.00
2018-08-12T15:08:27.169Z,36.00
2018-08-12T15:10:55.221Z,37.60
2018-08-12T15:13:23.710Z,36.80
2018-08-12T15:15:51.840Z,36.00
2018-08-12T15:18:20.990Z,35.30
2018-08-12T15:20:49.113Z,35.90
2018-08-12T15:23:17.317Z,33.80
2018-08-12T15:25:45.769Z,34.50
2018-08-12T15:28:13.861Z,34.40
2018-08-12T15:30:42.453Z,33.80
2018-08-12T15:33:10.569Z,29.70
2018-08-12T15:35:38.559Z,30.30
2018-08-12T15:38:06.829Z,28.90
2018-08-12T15:40:34.910Z,27.20
2018-08-12T15:43:03.002Z,27.50
2018-08-12T15:45:31.309Z,26.20
2018-08-12T15:47:59.329Z,25.60
2018-08-12T15:50:27.441Z,26.20
2018-08-12T15:52:55.539Z,26.00
2018-08-12T15:55:23.557Z,23.50
2018-08-12T15:57:51.600Z,24.60
2018-08-12T16:00:20.897Z,25.40
2018-08-12T16:02:49.089Z,25.10
2018-08-12T16:05:17.151Z,25.00
2018-08-12T16:07:46.416Z,25.30
2018-08-12T16:10:16.944Z,25.60
2018-08-12T16:12:45.985Z,24.90
2018-08-12T16:15:14.029Z,24.60
2018-08-12T16:17:42.810Z,26.10
2018-08-12T16:20:11.595Z,25.40
2018-08-12T16:22:39.711Z,24.90
2018-08-12T16:25:10.542Z,23.70
2018-08-12T16:27:38.882Z,23.70
2018-08-12T16:30:08.185Z,23.20
2018-08-12T16:32:36.208Z,23.10
2018-08-12T16:35:04.732Z,22.50
2018-08-12T16:37:32.917Z,21.80
2018-08-12T16:40:00.941Z,21.90
2018-08-12T16:42:29.085Z,21.50
2018-08-12T16:44:57.133Z,21.50
2018-08-12T16:47:25.162Z,21.70
2018-08-12T16:49:53.271Z,22.10
2018-08-12T16:52:21.521Z,21.80
2018-08-12T16:54:49.610Z,23.40
2018-08-12T16:57:17.573Z,23.80
2018-08-12T16:59:45.926Z,25.20
2018-08-12T17:02:14.065Z,27.30
2018-08-12T17:04:42.417Z,29.20
2018-08-12T17:07:10.832Z,29.70
2018-08-12T17:09:38.938Z,30.80
2018-08-12T17:12:07.387Z,33.40
2018-08-12T17:14:35.409Z,35.30
2018-08-12T17:17:03.493Z,35.30
2018-08-12T17:19:31.532Z,37.10
2018-08-12T17:21:59.704Z,39.70
2018-08-12T17:24:27.891Z,40.70
2018-08-12T17:26:55.917Z,42.70
2018-08-12T17:29:24.078Z,42.50
2018-08-12T17:31:52.077Z,43.20
2018-08-12T17:34:20.248Z,44.60
2018-08-12T17:36:48.672Z,47.00
2018-08-12T17:39:16.679Z,47.90
2018-08-12T17:41:44.751Z,47.90
2018-08-12T17:44:12.810Z,49.20
2018-08-12T17:46:40.805Z,49.90
2018-08-12T17:49:08.899Z,50.90
2018-08-12T17:51:37.284Z,53.40
2018-08-12T17:54:05.487Z,53.80
2018-08-12T17:56:33.512Z,54.40
2018-08-12T17:59:02.297Z,56.10
2018-08-12T18:01:30.297Z,57.00
2018-08-12T18:03:58.305Z,59.60
2018-08-12T18:06:26.434Z,59.70
2018-08-12T18:08:54.713Z,61.30
2018-08-12T18:11:22.801Z,62.70
2018-08-12T18:13:50.845Z,63.00
2018-08-12T18:16:19.200Z,64.70
2018-08-12T18:18:47.241Z,65.90
2018-08-12T18:21:15.342Z,64.90
2018-08-12T18:23:43.410Z,66.20
2018-08-12T18:26:11.489Z,68.80
2018-08-12T18:28:39.795Z,67.10
2018-08-12T18:31:07.806Z,67.50
2018-08-12T18:33:35.809Z,68.70
2018-08-12T18:36:03.861Z,69.50
2018-08-12T18:38:31.865Z,69.40
2018-08-12T18:40:59.996Z,70.40
2018-08-12T18:43:28.106Z,72.30
2018-08-12T18:45:56.188Z,73.10
2018-08-12T18:48:25.094Z,73.70
2018-08-12T18:50:53.117Z,73.40
2018-08-12T18:53:21.181Z,75.10
2018-08-12T18:55:49.256Z,75.20
2018-08-12T18:58:17.326Z,75.10
2018-08-12T19:00:45.341Z,74.30
2018-08-12T19:03:13.708Z,74.80
2018-08-12T19:05:41.718Z,76.30
2018-08-12T19:08:09.725Z,76.80
2018-08-12T19:10:37.773Z,76.80
2018-08-12T19:13:05.810Z,79.70
2018-08-12T19:15:33.918Z,80.10
2018-08-12T19:18:02.068Z,82.10
2018-08-12T19:20:30.108Z,83.40
2018-08-12T19:22:58.152Z,82.90
2018-08-12T19:25:26.273Z,84.30
2018-08-12T19:27:54.328Z,84.60
2018-08-12T19:30:22.377Z,86.50
2018-08-12T19:32:50.400Z,86.50
2018-08-12T19:35:18.401Z,87.40
2018-08-12T19:37:46.441Z,88.30
2018-08-12T19:40:14.480Z,88.80
2018-08-12T19:42:42.489Z,89.70
2018-08-12T19:45:11.789Z,90.30
2018-08-12T19:47:39.792Z,91.00
2018-08-12T19:50:08.128Z,90.90
2018-08-12T19:52:36.169Z,91.30
2018-08-12T19:55:05.113Z,92.00
2018-08-12T19:57:33.213Z,93.20
2018-08-12T20:00:01.343Z,93.80
2018-08-12T20:02:29.337Z,93.90
2018-08-12T20:04:57.389Z,94.40
2018-08-12T20:07:25.413Z,94.80
2018-08-12T20:09:53.413Z,95.30
2018-08-12T20:12:21.494Z,95.40
2018-08-12T20:14:49.576Z,96.30
2018-08-12T20:17:17.969Z,96.40
2018-08-12T20:19:45.981Z,96.80
2018-08-12T20:22:15.476Z,97.30
2018-08-12T20:24:44.101Z,97.80
2018-08-12T20:27:12.897Z,98.10
2018-08-12T20:29:41.050Z,98.30
2018-08-12T20:32:09.279Z,98.70
2018-08-12T20:34:37.417Z,98.90
2018-08-12T20:37:05.485Z,99.50
2018-08-12T20:39:33.614Z,99.70
2018-08-12T20:42:01.690Z,99.90
2018-08-12T20:44:29.736Z,99.90
2018-08-12T20:46:57.739Z,99.90
2018-08-12T20:49:25.985Z,99.90
2018-08-12T20:51:54.003Z,99.90
2018-08-12T20:54:22.641Z,99.90
2018-08-12T20:56:51.002Z,99.90
2018-08-12T20:59:19.112Z,99.90
2018-08-12T21:01:47.082Z,99.90
2018-08-12T21:04:15.148Z,99.90
2018-08-12T21:06:43.208Z,99.90
2018-08-12T21:09:11.936Z,99.90
2018-08-12T21:11:40.337Z,99.90
2018-08-12T21:14:08.517Z,99.90
2018-08-12T21:16:36.595Z,99.90
2018-08-12T21:19:04.696Z,99.90
2018-08-12T21:21:32.609Z,99.90
2018-08-12T21:24:00.653Z,99.90
2018-08-12T21:26:28.682Z,99.90
2018-08-12T21:28:56.817Z,99.90
2018-08-12T21:31:25.006Z,99.90
2018-08-12T21:33:53.393Z,99.90
2018-08-12T21:36:21.532Z,99.90
2018-08-12T21:38:49.562Z,99.90
2018-08-12T21:41:18.148Z,99.90
2018-08-12T21:43:46.194Z,99.90
2018-08-12T21:46:14.196Z,99.90
2018-08-12T21:48:42.334Z,99.90
2018-08-12T21:51:10.394Z,99.90
2018-08-12T21:53:38.441Z,99.90
2018-08-12T21:56:06.441Z,99.90
2018-08-12T21:58:34.547Z,99.90
2018-08-12T22:01:02.931Z,99.90
2018-08-12T22:03:30.995Z,99.90
2018-08-12T22:05:58.993Z,99.90
2018-08-12T22:08:27.293Z,99.90
2018-08-12T22:10:55.310Z,99.90
2018-08-12T22:13:23.358Z,99.90
2018-08-12T22:15:51.573Z,99.90
2018-08-12T22:18:19.725Z,99.90
2018-08-12T22:20:47.867Z,99.90
2018-08-12T22:23:15.900Z,99.90
2018-08-12T22:25:44.293Z,99.90
2018-08-12T22:28:12.330Z,99.90
2018-08-12T22:30:40.340Z,99.90
2018-08-12T22:33:08.593Z,99.90
2018-08-12T22:35:36.733Z,99.90
2018-08-12T22:38:05.342Z,99.90
2018-08-12T22:40:33.358Z,99.90
2018-08-12T22:43:01.398Z,99.90
2018-08-12T22:45:29.392Z,99.90
2018-08-12T22:47:57.445Z,99.90
2018-08-12T22:50:25.536Z,99.90
2018-08-12T22:52:53.545Z,99.90
2018-08-12T22:55:21.816Z,99.90
2018-08-12T22:57:49.861Z,99.90
2018-08-12T23:00:19.408Z,99.90
2018-08-12T23:02:47.861Z,99.90
2018-08-12T23:05:15.988Z,99.90
2018-08-12T23:07:44.157Z,99.90
2018-08-12T23:10:12.152Z,99.90
2018-08-12T23:12:40.541Z,99.90
2018-08-12T23:15:20.189Z,99.90
2018-08-12T23:17:48.194Z,99.90
2018-08-12T23:20:16.270Z,99.90
2018-08-12T23:22:44.477Z,99.90
2018-08-12T23:25:12.537Z,99.90
2018-08-12T23:27:40.575Z,99.90
2018-08-12T23:30:09.117Z,99.90
2018-08-12T23:32:37.921Z,99.90
2018-08-12T23:35:06.108Z,99.90
2018-08-12T23:37:34.499Z,99.90
2018-08-12T23:40:02.581Z,99.90
2018-08-12T23:42:30.883Z,99.90
2018-08-12T23:44:59.006Z,99.90
2018-08-12T23:47:27.005Z,99.90
2018-08-12T23:49:55.385Z,99.90
2018-08-12T23:52:23.382Z,99.90
2018-08-12T23:54:51.393Z,99.90
2018-08-12T23:57:19.478Z,99.90
2018-08-12T23:59:47.525Z,99.90
